TUI325 EDDB-LHBP
Flight info
| Callsign | TUI325 |
|---|---|
| Flight time | N/A |
| Altitude | 35000 |
| Route | ARSAP4N/24L ARSAP Y210 OLUMA T710 KULUV DCT DESEN DCT VALPI DCT NIT/N0375F230 M748 ARFOX |
| Aircraft | B738/M-SDE2E3FGHIRWXY/LB1 |
Departure
| Time | 2026-05-04 17:00 |
|---|---|
| Airport | Berlin Brandenburg Airport (EDDB) |
Arrival
| Time | N/A |
|---|---|
| Airport | Budapest Liszt Ferenc International Airport (LHBP) |
| Time | Latitude | Longitude | Altitude | Speed | Heading |
|---|---|---|---|---|---|
| 2026-05-04 16:24 | 52.36107 | 13.51239 | 154 ft | 0 kts | 339° |
| 2026-05-04 16:49 | 52.36106 | 13.51239 | 154 ft | 1 kts | 339° |
| 2026-05-04 16:50 | 52.36058 | 13.51269 | 154 ft | 4 kts | 339° |
| 2026-05-04 16:50 | 52.36028 | 13.51287 | 154 ft | 0 kts | 339° |
| 2026-05-04 16:52 | 52.36022 | 13.51291 | 154 ft | 0 kts | 339° |
| 2026-05-04 16:55 | 52.36020 | 13.51265 | 154 ft | 2 kts | 255° |
| 2026-05-04 16:55 | 52.35996 | 13.51151 | 154 ft | 9 kts | 249° |
| 2026-05-04 16:56 | 52.35947 | 13.50953 | 153 ft | 9 kts | 248° |
| 2026-05-04 16:56 | 52.35771 | 13.50825 | 153 ft | 14 kts | 159° |
| 2026-05-04 16:57 | 52.35682 | 13.50823 | 153 ft | 13 kts | 210° |
| 2026-05-04 16:57 | 52.35530 | 13.50624 | 153 ft | 18 kts | 218° |
| 2026-05-04 16:58 | 52.35371 | 13.50335 | 153 ft | 20 kts | 249° |
| 2026-05-04 16:58 | 52.35255 | 13.49841 | 153 ft | 81 kts | 249° |
| 2026-05-04 16:59 | 52.34555 | 13.46915 | 329 ft | 176 kts | 248° |
| 2026-05-04 17:00 | 52.31560 | 13.39810 | 2832 ft | 224 kts | 226° |
| 2026-05-04 17:00 | 52.28255 | 13.34239 | 4719 ft | 230 kts | 229° |
| 2026-05-04 17:01 | 52.26098 | 13.30360 | 4995 ft | 236 kts | 229° |
| 2026-05-04 17:01 | 52.23380 | 13.27695 | 5394 ft | 240 kts | 180° |
| 2026-05-04 17:02 | 52.20501 | 13.30178 | 7136 ft | 249 kts | 125° |
| 2026-05-04 17:02 | 52.19264 | 13.35541 | 8609 ft | 266 kts | 86° |
| 2026-05-04 17:03 | 52.19658 | 13.38617 | 8945 ft | 291 kts | 74° |
| 2026-05-04 17:03 | 52.20234 | 13.41866 | 9534 ft | 304 kts | 73° |
| 2026-05-04 17:03 | 52.21459 | 13.48621 | 11067 ft | 313 kts | 74° |
| 2026-05-04 17:04 | 52.22671 | 13.55498 | 12710 ft | 319 kts | 75° |
| 2026-05-04 17:04 | 52.23888 | 13.62560 | 14216 ft | 328 kts | 75° |
| 2026-05-04 17:05 | 52.25114 | 13.69764 | 15600 ft | 336 kts | 75° |
| 2026-05-04 17:05 | 52.26359 | 13.77120 | 16963 ft | 344 kts | 75° |
| 2026-05-04 17:06 | 52.27650 | 13.84788 | 18331 ft | 353 kts | 75° |
| 2026-05-04 17:06 | 52.28301 | 13.88673 | 18931 ft | 356 kts | 75° |
| 2026-05-04 17:07 | 52.29620 | 13.96556 | 20125 ft | 363 kts | 75° |
| 2026-05-04 17:07 | 52.30070 | 13.99254 | 20549 ft | 365 kts | 75° |
| 2026-05-04 17:07 | 52.30956 | 14.04582 | 21383 ft | 369 kts | 75° |
| 2026-05-04 17:07 | 52.31483 | 14.08696 | 21928 ft | 373 kts | 89° |
| 2026-05-04 17:08 | 52.31209 | 14.12947 | 22166 ft | 384 kts | 104° |
| 2026-05-04 17:08 | 52.29928 | 14.21793 | 22425 ft | 416 kts | 105° |
| 2026-05-04 17:08 | 52.29231 | 14.26453 | 22667 ft | 427 kts | 105° |
| 2026-05-04 17:09 | 52.28533 | 14.31208 | 23130 ft | 432 kts | 105° |
| 2026-05-04 17:09 | 52.27843 | 14.35999 | 23662 ft | 434 kts | 105° |
| 2026-05-04 17:09 | 52.27158 | 14.40812 | 24129 ft | 437 kts | 105° |
| 2026-05-04 17:10 | 52.25776 | 14.50549 | 24976 ft | 444 kts | 105° |
| 2026-05-04 17:10 | 52.23649 | 14.65418 | 26196 ft | 453 kts | 105° |
| 2026-05-04 17:11 | 52.22918 | 14.70430 | 26598 ft | 456 kts | 107° |
| 2026-05-04 17:11 | 52.22257 | 14.73679 | 26828 ft | 455 kts | 116° |
| 2026-05-04 17:11 | 52.18916 | 14.84387 | 27743 ft | 459 kts | 122° |
| 2026-05-04 17:12 | 52.17394 | 14.88982 | 28096 ft | 462 kts | 121° |
| 2026-05-04 17:12 | 52.14376 | 14.98277 | 28895 ft | 465 kts | 121° |
| 2026-05-04 17:13 | 52.10397 | 15.10843 | 29779 ft | 474 kts | 121° |
| 2026-05-04 17:14 | 52.05864 | 15.25193 | 30848 ft | 475 kts | 121° |
| 2026-05-04 17:14 | 52.04355 | 15.29951 | 31300 ft | 472 kts | 121° |
| 2026-05-04 17:14 | 52.01344 | 15.39403 | 32034 ft | 472 kts | 121° |
| 2026-05-04 17:15 | 51.99829 | 15.44138 | 32365 ft | 472 kts | 121° |
| 2026-05-04 17:15 | 51.96804 | 15.53570 | 33071 ft | 471 kts | 121° |
| 2026-05-04 17:16 | 51.93772 | 15.62995 | 33720 ft | 472 kts | 121° |
| 2026-05-04 17:16 | 51.89184 | 15.77025 | 34711 ft | 466 kts | 125° |
| 2026-05-04 17:17 | 51.87421 | 15.81412 | 34955 ft | 465 kts | 127° |
| 2026-05-04 17:18 | 51.79917 | 15.98665 | 34925 ft | 465 kts | 128° |
| 2026-05-04 17:19 | 51.72581 | 16.15809 | 34939 ft | 464 kts | 128° |
| 2026-05-04 17:20 | 51.64983 | 16.32491 | 34928 ft | 459 kts | 140° |
| 2026-05-04 17:20 | 51.59889 | 16.38438 | 34925 ft | 450 kts | 155° |
| 2026-05-04 17:20 | 51.57133 | 16.40826 | 34925 ft | 450 kts | 156° |
| 2026-05-04 17:21 | 51.46109 | 16.50339 | 34933 ft | 450 kts | 155° |
| 2026-05-04 17:22 | 51.40600 | 16.55147 | 34935 ft | 451 kts | 155° |
| 2026-05-04 17:23 | 51.29584 | 16.64751 | 34930 ft | 451 kts | 155° |
| 2026-05-04 17:24 | 51.21309 | 16.71930 | 34932 ft | 451 kts | 155° |
| 2026-05-04 17:25 | 51.10269 | 16.81459 | 34933 ft | 451 kts | 155° |
| 2026-05-04 17:26 | 50.99228 | 16.90937 | 34937 ft | 450 kts | 155° |
| 2026-05-04 17:27 | 50.85444 | 17.02698 | 34942 ft | 450 kts | 155° |
| 2026-05-04 17:28 | 50.74407 | 17.12056 | 34931 ft | 450 kts | 154° |
| 2026-05-04 17:29 | 50.57855 | 17.25999 | 34948 ft | 450 kts | 155° |
| 2026-05-04 17:31 | 50.44034 | 17.37556 | 34958 ft | 450 kts | 154° |
| 2026-05-04 17:32 | 50.30221 | 17.49034 | 34961 ft | 451 kts | 154° |
| 2026-05-04 17:33 | 50.21450 | 17.53868 | 34960 ft | 445 kts | 170° |
| 2026-05-04 17:33 | 50.18426 | 17.54893 | 34963 ft | 445 kts | 171° |
| 2026-05-04 17:34 | 50.06320 | 17.59046 | 34963 ft | 446 kts | 170° |
| 2026-05-04 17:35 | 49.91185 | 17.64383 | 34972 ft | 447 kts | 169° |
| 2026-05-04 17:36 | 49.85114 | 17.66516 | 34974 ft | 447 kts | 169° |
| 2026-05-04 17:36 | 49.79040 | 17.68644 | 34975 ft | 448 kts | 169° |
| 2026-05-04 17:37 | 49.72953 | 17.70771 | 34981 ft | 449 kts | 169° |
| 2026-05-04 17:37 | 49.66860 | 17.72894 | 34975 ft | 449 kts | 169° |
| 2026-05-04 17:38 | 49.60758 | 17.75015 | 34978 ft | 449 kts | 169° |
| 2026-05-04 17:38 | 49.54663 | 17.77129 | 34982 ft | 449 kts | 169° |
| 2026-05-04 17:39 | 49.45587 | 17.80268 | 34966 ft | 435 kts | 169° |
| 2026-05-04 17:39 | 49.42719 | 17.81261 | 34959 ft | 421 kts | 170° |
| 2026-05-04 17:39 | 49.39906 | 17.82232 | 34965 ft | 408 kts | 170° |
| 2026-05-04 17:40 | 49.37140 | 17.83185 | 34967 ft | 396 kts | 170° |
| 2026-05-04 17:40 | 49.34494 | 17.84095 | 34957 ft | 383 kts | 170° |
| 2026-05-04 17:40 | 49.29366 | 17.85849 | 34998 ft | 385 kts | 170° |
| 2026-05-04 17:41 | 49.24025 | 17.87668 | 34991 ft | 400 kts | 170° |
| 2026-05-04 17:41 | 49.18547 | 17.89538 | 34987 ft | 405 kts | 170° |
| 2026-05-04 17:42 | 49.13114 | 17.91394 | 34969 ft | 395 kts | 170° |
| 2026-05-04 17:42 | 49.07756 | 17.93217 | 34995 ft | 395 kts | 169° |
| 2026-05-04 17:43 | 49.02524 | 17.95710 | 34813 ft | 391 kts | 160° |
| 2026-05-04 17:43 | 49.00017 | 17.97244 | 34309 ft | 388 kts | 160° |
| 2026-05-04 17:43 | 48.97493 | 17.98814 | 33271 ft | 398 kts | 160° |
| 2026-05-04 17:44 | 48.94863 | 18.00440 | 31844 ft | 418 kts | 159° |
| 2026-05-04 17:44 | 48.92140 | 18.02102 | 30978 ft | 423 kts | 160° |
| 2026-05-04 17:44 | 48.89420 | 18.03748 | 30456 ft | 417 kts | 160° |
| 2026-05-04 17:44 | 48.86750 | 18.05351 | 29980 ft | 410 kts | 160° |
| 2026-05-04 17:45 | 48.84113 | 18.06923 | 29346 ft | 405 kts | 160° |
| 2026-05-04 17:45 | 48.81501 | 18.08474 | 28693 ft | 402 kts | 160° |
| 2026-05-04 17:45 | 48.78908 | 18.10009 | 28056 ft | 398 kts | 160° |
| 2026-05-04 17:45 | 48.76346 | 18.11523 | 27458 ft | 393 kts | 160° |
| 2026-05-04 17:46 | 48.73805 | 18.13024 | 26834 ft | 390 kts | 160° |
| 2026-05-04 17:46 | 48.71286 | 18.14509 | 26235 ft | 387 kts | 160° |
| 2026-05-04 17:46 | 48.68790 | 18.15979 | 25701 ft | 382 kts | 160° |
| 2026-05-04 17:46 | 48.66324 | 18.17431 | 25156 ft | 378 kts | 160° |
| 2026-05-04 17:47 | 48.63880 | 18.18867 | 24602 ft | 375 kts | 160° |
| 2026-05-04 17:47 | 48.61455 | 18.20292 | 24061 ft | 373 kts | 160° |
| 2026-05-04 17:47 | 48.59052 | 18.21702 | 23516 ft | 370 kts | 160° |
| 2026-05-04 17:47 | 48.56663 | 18.23103 | 22913 ft | 366 kts | 160° |
| 2026-05-04 17:48 | 48.54305 | 18.24484 | 22378 ft | 361 kts | 161° |
| 2026-05-04 17:48 | 48.51978 | 18.25847 | 21844 ft | 357 kts | 161° |
| 2026-05-04 17:48 | 48.49677 | 18.27191 | 21301 ft | 353 kts | 161° |
| 2026-05-04 17:48 | 48.47406 | 18.28516 | 20798 ft | 348 kts | 161° |
| 2026-05-04 17:49 | 48.45158 | 18.29826 | 20282 ft | 344 kts | 161° |
| 2026-05-04 17:49 | 48.42933 | 18.31124 | 19780 ft | 341 kts | 161° |
| 2026-05-04 17:49 | 48.40735 | 18.32403 | 19274 ft | 337 kts | 161° |
| 2026-05-04 17:49 | 48.38560 | 18.33669 | 18792 ft | 334 kts | 161° |
| 2026-05-04 17:50 | 48.36406 | 18.34922 | 18310 ft | 330 kts | 161° |
| 2026-05-04 17:50 | 48.34277 | 18.36158 | 17752 ft | 327 kts | 161° |
| 2026-05-04 17:50 | 48.32162 | 18.37386 | 17182 ft | 325 kts | 161° |
| 2026-05-04 17:50 | 48.30065 | 18.38601 | 16641 ft | 322 kts | 161° |
| 2026-05-04 17:51 | 48.27988 | 18.39834 | 16114 ft | 320 kts | 158° |
| 2026-05-04 17:51 | 48.26014 | 18.41359 | 15601 ft | 318 kts | 153° |
| 2026-05-04 17:51 | 48.24137 | 18.42985 | 15255 ft | 312 kts | 152° |
| 2026-05-04 17:51 | 48.22267 | 18.44644 | 15064 ft | 304 kts | 152° |
| 2026-05-04 17:52 | 48.20462 | 18.46237 | 15024 ft | 309 kts | 152° |
| 2026-05-04 17:52 | 48.18575 | 18.47885 | 14840 ft | 318 kts | 152° |
| 2026-05-04 17:52 | 48.16661 | 18.49540 | 14605 ft | 315 kts | 152° |
| 2026-05-04 17:52 | 48.14774 | 18.51152 | 14288 ft | 310 kts | 153° |
| 2026-05-04 17:53 | 48.12907 | 18.52738 | 13825 ft | 307 kts | 153° |
| 2026-05-04 17:53 | 48.11048 | 18.54315 | 13248 ft | 307 kts | 153° |
| 2026-05-04 17:53 | 48.09198 | 18.55885 | 12730 ft | 305 kts | 153° |
| 2026-05-04 17:53 | 48.07360 | 18.57443 | 12240 ft | 304 kts | 153° |
| 2026-05-04 17:54 | 48.05519 | 18.59003 | 11908 ft | 303 kts | 153° |
| 2026-05-04 17:54 | 48.03695 | 18.60549 | 11613 ft | 300 kts | 153° |
| 2026-05-04 17:54 | 48.01879 | 18.62087 | 11289 ft | 299 kts | 153° |
| 2026-05-04 17:54 | 48.00077 | 18.63613 | 11080 ft | 294 kts | 153° |
| 2026-05-04 17:55 | 47.98332 | 18.65090 | 11031 ft | 283 kts | 153° |
| 2026-05-04 17:55 | 47.96652 | 18.66512 | 11008 ft | 271 kts | 153° |
| 2026-05-04 17:55 | 47.95048 | 18.67870 | 11003 ft | 259 kts | 153° |
| 2026-05-04 17:55 | 47.93514 | 18.69166 | 11003 ft | 247 kts | 153° |
| 2026-05-04 17:56 | 47.92042 | 18.70408 | 10923 ft | 241 kts | 153° |
| 2026-05-04 17:56 | 47.90587 | 18.71633 | 10677 ft | 240 kts | 153° |
| 2026-05-04 17:56 | 47.89116 | 18.72869 | 10227 ft | 249 kts | 153° |
| 2026-05-04 17:56 | 47.87532 | 18.74197 | 9459 ft | 270 kts | 153° |
| 2026-05-04 17:57 | 47.85914 | 18.75557 | 9281 ft | 264 kts | 153° |
| 2026-05-04 17:57 | 47.84334 | 18.76888 | 9130 ft | 257 kts | 153° |
| 2026-05-04 17:57 | 47.82796 | 18.78182 | 9012 ft | 250 kts | 153° |
| 2026-05-04 17:57 | 47.81312 | 18.79430 | 8964 ft | 240 kts | 153° |
| 2026-05-04 17:58 | 47.80358 | 18.80232 | 8836 ft | 238 kts | 153° |
| 2026-05-04 17:58 | 47.78919 | 18.81438 | 8541 ft | 239 kts | 153° |
| 2026-05-04 17:58 | 47.77419 | 18.82691 | 7750 ft | 260 kts | 153° |
| 2026-05-04 17:58 | 47.75778 | 18.84060 | 7025 ft | 279 kts | 153° |
| 2026-05-04 17:59 | 47.74065 | 18.85496 | 6562 ft | 285 kts | 152° |
| 2026-05-04 17:59 | 47.72337 | 18.86943 | 6259 ft | 284 kts | 153° |
| 2026-05-04 17:59 | 47.68941 | 18.89782 | 5731 ft | 278 kts | 153° |
| 2026-05-04 18:00 | 47.67262 | 18.91185 | 5440 ft | 275 kts | 153° |
| 2026-05-04 18:00 | 47.65612 | 18.92564 | 5308 ft | 271 kts | 153° |
| 2026-05-04 18:00 | 47.63973 | 18.93929 | 5167 ft | 270 kts | 153° |
| 2026-05-04 18:00 | 47.62345 | 18.95283 | 4934 ft | 267 kts | 153° |
| 2026-05-04 18:01 | 47.60731 | 18.96626 | 4660 ft | 266 kts | 152° |
| 2026-05-04 18:01 | 47.59301 | 18.98312 | 4350 ft | 262 kts | 133° |
| 2026-05-04 18:01 | 47.58154 | 19.00354 | 4092 ft | 254 kts | 134° |
| 2026-05-04 18:02 | 47.55889 | 19.04146 | 3586 ft | 237 kts | 135° |
| 2026-05-04 18:02 | 47.54815 | 19.05912 | 3553 ft | 227 kts | 136° |
| 2026-05-04 18:02 | 47.53757 | 19.07666 | 3327 ft | 233 kts | 135° |
| 2026-05-04 18:02 | 47.52656 | 19.09491 | 2751 ft | 237 kts | 136° |
| 2026-05-04 18:03 | 47.51574 | 19.11243 | 2434 ft | 224 kts | 136° |
| 2026-05-04 18:03 | 47.50545 | 19.12902 | 2136 ft | 212 kts | 136° |
| 2026-05-04 18:03 | 47.49590 | 19.14445 | 1863 ft | 198 kts | 136° |
| 2026-05-04 18:03 | 47.48727 | 19.15850 | 1785 ft | 178 kts | 135° |
| 2026-05-04 18:04 | 47.47882 | 19.17243 | 1389 ft | 182 kts | 135° |
| 2026-05-04 18:04 | 47.46996 | 19.18657 | 1116 ft | 199 kts | 135° |